createdAt,value
2023-05-25T00:02:25.015Z,22.73
2023-05-25T00:04:52.419Z,23.85
2023-05-25T00:07:19.210Z,21.08
2023-05-25T00:09:46.711Z,22.63
2023-05-25T00:12:14.371Z,23.35
2023-05-25T00:14:41.161Z,20.20
2023-05-25T00:17:10.683Z,18.95
2023-05-25T00:19:38.265Z,20.17
2023-05-25T00:22:05.155Z,19.88
2023-05-25T00:24:31.964Z,17.33
2023-05-25T00:26:58.913Z,19.52
2023-05-25T00:29:26.206Z,19.52
2023-05-25T00:31:53.465Z,18.90
2023-05-25T00:34:20.196Z,17.65
2023-05-25T00:36:50.001Z,18.23
2023-05-25T00:39:17.786Z,17.38
2023-05-25T00:41:45.379Z,20.35
2023-05-25T00:44:14.849Z,18.73
2023-05-25T00:46:46.186Z,17.00
2023-05-25T00:49:14.147Z,18.52
2023-05-25T00:51:41.209Z,16.38
2023-05-25T00:54:07.866Z,19.10
2023-05-25T00:56:38.051Z,13.75
2023-05-25T00:59:06.895Z,14.13
2023-05-25T01:01:40.355Z,15.50
2023-05-25T01:04:10.358Z,13.77
2023-05-25T01:06:37.710Z,14.52
2023-05-25T01:09:05.051Z,12.70
2023-05-25T01:11:39.963Z,13.60
2023-05-25T01:16:33.191Z,11.43
2023-05-25T01:18:59.974Z,15.35
2023-05-25T01:21:42.344Z,12.43
2023-05-25T01:24:22.747Z,11.77
2023-05-25T01:27:03.831Z,10.10
2023-05-25T01:29:30.479Z,10.57
2023-05-25T01:31:57.147Z,10.88
2023-05-25T01:34:23.884Z,12.02
2023-05-25T01:36:50.996Z,10.82
2023-05-25T01:39:22.048Z,12.07
2023-05-25T01:41:48.810Z,9.68
2023-05-25T01:44:15.806Z,10.23
2023-05-25T01:46:42.497Z,10.10
2023-05-25T01:49:27.584Z,10.20
2023-05-25T01:51:57.139Z,9.85
2023-05-25T01:54:28.840Z,9.65
2023-05-25T01:56:56.430Z,9.68
2023-05-25T01:59:23.077Z,8.55
2023-05-25T02:01:52.783Z,9.57
2023-05-25T02:04:19.899Z,9.43
2023-05-25T02:06:49.041Z,10.45
2023-05-25T02:09:16.161Z,9.40
2023-05-25T02:11:42.790Z,10.43
2023-05-25T02:14:11.014Z,9.75
2023-05-25T02:16:38.031Z,11.10
2023-05-25T02:19:04.880Z,11.07
2023-05-25T02:21:31.537Z,8.48
2023-05-25T02:23:58.196Z,10.18
2023-05-25T02:26:24.840Z,10.48
2023-05-25T02:28:51.729Z,10.48
2023-05-25T02:31:18.919Z,10.95
2023-05-25T02:33:45.565Z,10.60
2023-05-25T02:36:12.221Z,14.40
2023-05-25T02:38:38.901Z,13.93
2023-05-25T02:41:05.605Z,13.30
2023-05-25T02:43:32.735Z,12.70
2023-05-25T02:45:59.384Z,13.35
2023-05-25T02:48:26.228Z,14.77
2023-05-25T02:50:52.891Z,13.63
2023-05-25T02:53:19.581Z,13.30
2023-05-25T02:55:46.447Z,12.05
2023-05-25T02:58:13.315Z,12.50
2023-05-25T03:00:40.194Z,14.45
2023-05-25T03:03:06.938Z,14.07
2023-05-25T03:05:35.534Z,14.30
2023-05-25T03:08:02.220Z,14.52
2023-05-25T03:10:28.854Z,13.07
2023-05-25T03:12:55.578Z,15.35
2023-05-25T03:15:23.258Z,12.82
2023-05-25T03:17:50.519Z,13.88
2023-05-25T03:20:17.232Z,16.40
2023-05-25T03:22:43.958Z,15.93
2023-05-25T03:25:13.594Z,15.20
2023-05-25T03:27:40.573Z,14.63
2023-05-25T03:30:08.108Z,14.85
2023-05-25T03:32:34.751Z,15.40
2023-05-25T03:35:01.391Z,16.30
2023-05-25T03:37:28.141Z,15.80
2023-05-25T03:39:54.854Z,15.32
2023-05-25T03:42:21.494Z,15.55
2023-05-25T03:44:48.166Z,13.98
2023-05-25T03:47:14.785Z,15.23
2023-05-25T03:49:41.617Z,15.38
2023-05-25T03:52:08.654Z,16.20
2023-05-25T03:54:35.602Z,15.90
2023-05-25T03:57:09.794Z,16.48
2023-05-25T03:59:36.505Z,16.20
2023-05-25T04:02:03.203Z,16.05
2023-05-25T04:04:30.124Z,15.00
2023-05-25T04:06:57.009Z,17.83
2023-05-25T04:09:23.644Z,17.42
2023-05-25T04:12:13.357Z,19.75
2023-05-25T04:14:40.001Z,20.27
2023-05-25T04:17:06.732Z,21.42
2023-05-25T04:19:33.377Z,22.77
2023-05-25T04:22:00.068Z,21.77
2023-05-25T04:24:27.649Z,24.10
2023-05-25T04:26:56.916Z,24.85
2023-05-25T04:29:23.604Z,26.63
2023-05-25T04:31:51.759Z,24.05
2023-05-25T04:34:18.517Z,28.20
2023-05-25T04:36:45.220Z,24.80
2023-05-25T04:39:11.913Z,23.55
2023-05-25T04:41:39.332Z,24.85
2023-05-25T04:44:09.524Z,26.52
2023-05-25T04:46:37.558Z,24.40
2023-05-25T04:49:05.722Z,24.20
2023-05-25T04:51:32.743Z,26.65
2023-05-25T04:53:59.893Z,28.58
2023-05-25T04:56:27.013Z,22.60
2023-05-25T04:58:53.731Z,23.80
2023-05-25T05:01:20.750Z,25.15
2023-05-25T05:03:47.651Z,23.20
2023-05-25T05:06:14.415Z,25.73
2023-05-25T05:08:41.885Z,26.08
2023-05-25T05:11:08.554Z,26.15
2023-05-25T05:13:35.247Z,25.52
2023-05-25T05:16:01.920Z,24.27
2023-05-25T05:18:29.221Z,22.55
2023-05-25T05:20:56.126Z,21.45
2023-05-25T05:23:22.825Z,24.75
2023-05-25T05:25:49.489Z,21.25
2023-05-25T05:28:16.132Z,22.05
2023-05-25T05:30:44.211Z,19.58
2023-05-25T05:33:10.965Z,17.83
2023-05-25T05:35:37.732Z,19.33
2023-05-25T05:38:05.279Z,18.67
2023-05-25T05:40:31.943Z,18.70
2023-05-25T05:42:58.573Z,16.75
2023-05-25T05:45:25.588Z,17.10
2023-05-25T05:47:52.342Z,15.77
2023-05-25T05:50:19.087Z,15.32
2023-05-25T05:52:45.856Z,15.32
2023-05-25T05:55:12.562Z,17.13
2023-05-25T05:57:39.221Z,15.15
2023-05-25T06:00:07.141Z,16.02
2023-05-25T06:02:34.026Z,15.23
2023-05-25T06:05:01.643Z,15.80
2023-05-25T06:07:29.126Z,17.20
2023-05-25T06:09:56.221Z,16.23
2023-05-25T06:12:22.972Z,16.40
2023-05-25T06:14:52.180Z,19.38
2023-05-25T06:17:19.304Z,18.40
2023-05-25T06:19:46.158Z,15.27
2023-05-25T06:22:12.804Z,18.05
2023-05-25T06:24:39.452Z,19.40
2023-05-25T06:27:06.287Z,18.17
2023-05-25T06:29:33.040Z,20.27
2023-05-25T06:31:59.816Z,18.25
2023-05-25T06:34:26.650Z,19.00
2023-05-25T06:36:53.313Z,17.88
2023-05-25T06:39:20.384Z,18.80
2023-05-25T06:41:47.034Z,17.60
2023-05-25T06:44:13.688Z,17.10
2023-05-25T06:46:40.414Z,16.38
2023-05-25T06:49:07.118Z,17.38
2023-05-25T06:51:33.862Z,16.23
2023-05-25T06:54:00.597Z,17.52
2023-05-25T06:56:28.027Z,17.45
2023-05-25T06:58:54.976Z,15.55
2023-05-25T07:01:21.703Z,17.63
2023-05-25T07:03:48.367Z,17.10
2023-05-25T07:06:17.074Z,15.65
2023-05-25T07:08:43.747Z,15.27
2023-05-25T07:11:12.540Z,15.88
2023-05-25T07:13:39.397Z,15.50
2023-05-25T07:16:06.297Z,17.38
2023-05-25T07:18:33.493Z,15.63
2023-05-25T07:21:01.265Z,13.95
2023-05-25T07:23:27.973Z,14.98
2023-05-25T07:25:54.838Z,14.88
2023-05-25T07:28:21.470Z,16.48
2023-05-25T07:30:48.271Z,14.32
2023-05-25T07:33:14.959Z,14.90
2023-05-25T07:35:41.791Z,14.35
2023-05-25T07:38:09.414Z,13.68
2023-05-25T07:40:37.140Z,13.10
2023-05-25T07:43:08.148Z,13.13
2023-05-25T07:45:35.110Z,12.07
2023-05-25T07:48:01.860Z,11.32
2023-05-25T07:50:29.440Z,11.98
2023-05-25T07:52:59.860Z,11.85
2023-05-25T07:55:26.989Z,11.02
2023-05-25T07:57:53.676Z,11.75
2023-05-25T08:00:20.806Z,11.45
2023-05-25T08:02:47.592Z,10.18
2023-05-25T08:05:14.450Z,11.50
2023-05-25T08:07:42.814Z,9.98
2023-05-25T08:10:10.105Z,10.18
2023-05-25T08:12:47.649Z,10.23
2023-05-25T08:15:15.177Z,8.90
2023-05-25T08:17:42.221Z,10.93
2023-05-25T08:20:09.475Z,10.60
2023-05-25T08:22:36.260Z,11.38
2023-05-25T08:25:03.954Z,11.77
2023-05-25T08:27:32.265Z,14.18
2023-05-25T08:30:00.607Z,12.50
2023-05-25T08:32:27.300Z,13.13
2023-05-25T08:34:54.022Z,13.70
2023-05-25T08:37:22.726Z,13.18
2023-05-25T08:39:49.363Z,13.35
2023-05-25T08:42:16.038Z,13.23
2023-05-25T08:44:43.016Z,10.95
2023-05-25T08:47:09.697Z,12.88
2023-05-25T08:49:38.428Z,13.95
2023-05-25T08:52:06.018Z,14.13
2023-05-25T08:54:36.648Z,13.10
2023-05-25T08:57:12.287Z,13.88
2023-05-25T08:59:44.898Z,13.93
2023-05-25T09:02:14.665Z,15.35
2023-05-25T09:04:42.955Z,15.15
2023-05-25T09:07:11.147Z,15.02
2023-05-25T09:09:39.003Z,16.40
2023-05-25T09:12:09.022Z,16.17
2023-05-25T09:14:37.893Z,16.10
2023-05-25T09:17:04.842Z,16.13
2023-05-25T09:19:31.543Z,14.82
2023-05-25T09:22:10.725Z,14.82
2023-05-25T09:24:44.224Z,14.45
2023-05-25T09:27:11.411Z,15.27
2023-05-25T09:29:38.384Z,14.57
2023-05-25T09:32:06.806Z,15.15
2023-05-25T09:34:36.404Z,14.98
2023-05-25T09:37:21.623Z,14.68
2023-05-25T09:42:15.015Z,14.65
2023-05-25T09:44:42.976Z,13.77
2023-05-25T09:47:09.792Z,13.93
2023-05-25T09:49:36.628Z,14.60
2023-05-25T09:52:03.307Z,15.27
2023-05-25T09:54:30.003Z,13.68
2023-05-25T09:56:56.822Z,15.32
2023-05-25T09:59:23.639Z,15.52
2023-05-25T10:01:53.794Z,14.90
2023-05-25T10:04:21.054Z,13.82
2023-05-25T10:06:49.867Z,13.38
2023-05-25T10:09:17.860Z,15.07
2023-05-25T10:11:44.988Z,14.20
2023-05-25T10:14:12.554Z,14.45
2023-05-25T10:16:39.652Z,14.00
2023-05-25T10:19:22.112Z,13.60
2023-05-25T10:21:56.155Z,14.25
2023-05-25T10:24:35.208Z,13.10
2023-05-25T10:29:51.960Z,12.95
2023-05-25T10:32:18.730Z,12.40
2023-05-25T10:34:46.176Z,14.50
2023-05-25T10:37:12.988Z,12.70
2023-05-25T10:39:39.635Z,12.30
2023-05-25T10:42:06.682Z,12.45
2023-05-25T10:44:33.417Z,11.93
2023-05-25T10:47:00.150Z,12.32
2023-05-25T10:49:33.832Z,12.23
2023-05-25T10:52:00.866Z,11.95
2023-05-25T10:54:31.982Z,12.45
2023-05-25T10:57:12.003Z,11.02
2023-05-25T10:59:42.578Z,11.32
2023-05-25T11:02:09.568Z,11.82
2023-05-25T11:04:37.845Z,13.43
2023-05-25T11:07:08.066Z,11.15
2023-05-25T11:09:43.590Z,11.52
2023-05-25T11:12:22.605Z,10.80
2023-05-25T11:15:17.054Z,11.52
2023-05-25T11:18:02.846Z,12.30
2023-05-25T11:20:30.260Z,12.05
2023-05-25T11:22:57.586Z,10.93
2023-05-25T11:25:40.442Z,12.63
2023-05-25T11:28:07.753Z,14.00
2023-05-25T11:30:34.594Z,12.52
2023-05-25T11:33:04.741Z,10.82
2023-05-25T11:35:33.975Z,12.18
2023-05-25T11:38:01.288Z,13.13
2023-05-25T11:40:31.384Z,13.10
2023-05-25T11:43:00.636Z,14.48
2023-05-25T11:45:33.551Z,12.68
2023-05-25T11:48:00.440Z,14.55
2023-05-25T11:50:28.347Z,0.40
2023-05-25T11:52:55.170Z,2.90
2023-05-25T11:55:21.963Z,5.90
2023-05-25T11:57:55.740Z,13.00
2023-05-25T12:00:27.449Z,16.53
2023-05-25T12:02:54.430Z,15.05
2023-05-25T12:05:21.432Z,17.25
2023-05-25T12:07:48.238Z,15.75
2023-05-25T12:10:18.319Z,15.05
2023-05-25T12:12:45.609Z,15.50
2023-05-25T12:15:15.158Z,15.63
2023-05-25T12:17:43.030Z,16.88
2023-05-25T12:20:13.540Z,18.25
2023-05-25T12:22:41.871Z,14.38
2023-05-25T12:25:12.317Z,19.73
2023-05-25T12:27:40.377Z,16.67
2023-05-25T12:30:11.736Z,16.58
2023-05-25T12:32:54.909Z,17.02
2023-05-25T12:35:21.922Z,16.77
2023-05-25T12:37:48.574Z,16.60
2023-05-25T12:40:23.355Z,18.30
2023-05-25T12:45:24.487Z,18.98
2023-05-25T12:47:51.474Z,17.40
2023-05-25T12:50:19.451Z,16.38
2023-05-25T12:52:46.876Z,17.83
2023-05-25T12:55:22.640Z,17.88
2023-05-25T12:57:55.231Z,17.00
2023-05-25T13:00:26.796Z,19.92
2023-05-25T13:02:54.087Z,19.67
2023-05-25T13:05:27.870Z,19.70
2023-05-25T13:07:56.763Z,19.90
2023-05-25T13:10:24.055Z,18.67
2023-05-25T13:12:51.959Z,19.42
2023-05-25T13:15:21.217Z,18.35
2023-05-25T13:17:48.668Z,20.00
2023-05-25T13:20:15.668Z,19.23
2023-05-25T13:22:43.642Z,20.13
2023-05-25T13:25:11.229Z,0.63
2023-05-25T13:27:38.114Z,3.70
2023-05-25T13:30:08.175Z,20.70
2023-05-25T13:32:34.946Z,17.52
2023-05-25T13:35:01.809Z,20.77
2023-05-25T13:37:28.764Z,3.70
2023-05-25T13:39:56.214Z,28.77
2023-05-25T13:42:23.180Z,21.73
2023-05-25T13:44:50.404Z,19.73
2023-05-25T13:47:17.143Z,21.48
2023-05-25T13:49:43.996Z,20.88
2023-05-25T13:52:11.137Z,21.55
2023-05-25T13:54:37.804Z,21.52
2023-05-25T13:57:04.478Z,21.40
2023-05-25T13:59:31.350Z,22.85
2023-05-25T14:01:58.141Z,23.13
2023-05-25T14:04:26.772Z,25.73
2023-05-25T14:06:56.127Z,23.10
2023-05-25T14:09:23.426Z,22.58
2023-05-25T14:11:50.147Z,22.63
2023-05-25T14:14:30.131Z,23.30
2023-05-25T14:16:57.899Z,23.10
2023-05-25T14:19:24.697Z,22.48
2023-05-25T14:22:03.848Z,22.40
2023-05-25T14:24:38.184Z,23.38
2023-05-25T14:27:05.041Z,24.45
2023-05-25T14:29:31.690Z,22.45
2023-05-25T14:31:58.505Z,23.55
2023-05-25T14:34:25.386Z,24.08
2023-05-25T14:36:52.007Z,23.95
2023-05-25T14:39:18.681Z,25.48
2023-05-25T14:41:45.402Z,23.92
2023-05-25T14:44:12.067Z,24.55
2023-05-25T14:46:38.856Z,25.63
2023-05-25T14:49:05.703Z,23.60
2023-05-25T14:51:32.383Z,25.55
2023-05-25T14:54:00.762Z,26.92
2023-05-25T14:56:31.061Z,25.60
2023-05-25T14:58:58.116Z,25.98
2023-05-25T15:01:25.675Z,23.48
2023-05-25T15:03:52.807Z,26.17
2023-05-25T15:06:19.712Z,24.38
2023-05-25T15:08:46.409Z,24.48
2023-05-25T15:11:13.291Z,26.55
2023-05-25T15:13:40.952Z,25.55
2023-05-25T15:16:11.428Z,26.45
2023-05-25T15:18:38.161Z,25.15
2023-05-25T15:21:04.838Z,25.40
2023-05-25T15:23:32.117Z,25.75
2023-05-25T15:26:03.344Z,25.33
2023-05-25T15:28:30.907Z,24.98
2023-05-25T15:30:58.563Z,26.25
2023-05-25T15:33:36.082Z,25.67
2023-05-25T15:36:06.654Z,24.55
2023-05-25T15:38:33.342Z,25.27
2023-05-25T15:41:00.180Z,24.35
2023-05-25T15:43:27.108Z,23.65
2023-05-25T15:45:53.818Z,22.58
2023-05-25T15:48:20.548Z,23.05
2023-05-25T15:50:47.436Z,23.17
2023-05-25T15:53:14.393Z,25.05
2023-05-25T15:55:41.241Z,24.35
2023-05-25T15:58:07.891Z,24.63
2023-05-25T16:00:34.623Z,25.23
2023-05-25T16:03:01.421Z,25.15
2023-05-25T16:05:29.876Z,24.13
2023-05-25T16:07:56.584Z,25.83
2023-05-25T16:10:23.210Z,25.33
2023-05-25T16:12:49.905Z,27.08
2023-05-25T16:15:16.966Z,27.02
2023-05-25T16:17:43.613Z,27.17
2023-05-25T16:20:10.529Z,26.45
2023-05-25T16:22:37.547Z,26.48
2023-05-25T16:25:05.015Z,26.98
2023-05-25T16:27:31.800Z,26.67
2023-05-25T16:29:58.527Z,24.02
2023-05-25T16:32:25.432Z,24.30
2023-05-25T16:34:55.203Z,29.88
2023-05-25T16:37:21.911Z,29.35
2023-05-25T16:39:48.723Z,29.40
2023-05-25T16:42:15.389Z,29.27
2023-05-25T16:44:42.085Z,29.05
2023-05-25T16:47:08.905Z,27.90
2023-05-25T16:49:35.633Z,36.22
2023-05-25T16:52:05.232Z,28.70
2023-05-25T16:54:31.873Z,28.75
2023-05-25T16:56:58.700Z,28.92
2023-05-25T16:59:25.353Z,27.00
2023-05-25T17:01:52.061Z,28.30
2023-05-25T17:04:18.842Z,29.42
2023-05-25T17:06:45.565Z,30.85
2023-05-25T17:09:12.210Z,33.97
2023-05-25T17:11:38.939Z,29.33
2023-05-25T17:14:06.181Z,32.80
2023-05-25T17:16:33.031Z,35.42
2023-05-25T17:18:59.712Z,36.58
2023-05-25T17:21:27.058Z,38.67
2023-05-25T17:23:53.732Z,39.70
2023-05-25T17:26:20.382Z,39.63
2023-05-25T17:28:47.116Z,44.35
2023-05-25T17:31:13.975Z,41.53
2023-05-25T17:33:40.649Z,41.60
2023-05-25T17:36:07.592Z,40.10
2023-05-25T17:38:37.012Z,42.08
2023-05-25T17:41:03.686Z,45.05
2023-05-25T17:43:30.553Z,42.22
2023-05-25T17:48:26.003Z,39.67
2023-05-25T17:50:52.657Z,38.35
2023-05-25T17:53:19.411Z,39.92
2023-05-25T17:55:46.296Z,36.95
2023-05-25T17:58:13.245Z,38.03
2023-05-25T18:00:40.076Z,39.53
2023-05-25T18:03:06.871Z,39.75
2023-05-25T18:05:33.586Z,69.43
2023-05-25T18:08:00.506Z,37.22
2023-05-25T18:10:27.216Z,37.35
2023-05-25T18:12:54.265Z,34.33
2023-05-25T18:15:21.816Z,31.92
2023-05-25T18:17:48.699Z,34.60
2023-05-25T18:20:15.797Z,36.78
2023-05-25T18:22:42.733Z,35.03
2023-05-25T18:25:09.642Z,31.55
2023-05-25T18:27:36.404Z,34.33
2023-05-25T18:30:03.108Z,34.85
2023-05-25T18:32:29.811Z,33.08
2023-05-25T18:34:57.340Z,33.38
2023-05-25T18:37:24.681Z,33.05
2023-05-25T18:39:51.449Z,36.65
2023-05-25T18:42:18.140Z,33.30
2023-05-25T18:44:44.927Z,32.00
2023-05-25T18:47:12.019Z,30.30
2023-05-25T18:49:38.996Z,29.50
2023-05-25T18:52:08.238Z,33.70
2023-05-25T18:54:34.939Z,30.88
2023-05-25T18:57:01.733Z,30.70
2023-05-25T18:59:28.806Z,33.45
2023-05-25T19:01:56.652Z,30.65
2023-05-25T19:04:23.463Z,31.70
2023-05-25T19:06:50.311Z,30.92
2023-05-25T19:09:17.480Z,32.33
2023-05-25T19:11:44.210Z,31.42
2023-05-25T19:14:10.956Z,31.67
2023-05-25T19:16:37.784Z,31.42
2023-05-25T19:19:04.716Z,31.25
2023-05-25T19:21:31.487Z,31.13
2023-05-25T19:23:58.296Z,30.77
2023-05-25T19:26:24.948Z,30.33
2023-05-25T19:28:51.626Z,32.65
2023-05-25T19:31:18.623Z,31.55
2023-05-25T19:33:45.551Z,29.98
2023-05-25T19:36:12.220Z,30.63
2023-05-25T19:38:41.816Z,28.98
2023-05-25T19:41:09.110Z,29.02
2023-05-25T19:43:36.238Z,25.60
2023-05-25T19:46:03.246Z,27.02
2023-05-25T19:48:30.237Z,23.52
2023-05-25T19:50:57.780Z,27.00
2023-05-25T19:53:24.723Z,25.60
2023-05-25T19:55:51.631Z,24.25
2023-05-25T19:58:18.320Z,21.77
2023-05-25T20:00:45.085Z,24.17
2023-05-25T20:03:12.049Z,23.00
2023-05-25T20:05:39.376Z,19.50
2023-05-25T20:08:06.168Z,21.30
2023-05-25T20:10:39.476Z,21.45
2023-05-25T20:13:07.528Z,23.90
2023-05-25T20:15:34.618Z,20.92
2023-05-25T20:18:02.326Z,21.88
2023-05-25T20:20:29.188Z,22.13
2023-05-25T20:23:04.191Z,23.05
2023-05-25T20:27:57.397Z,22.88
2023-05-25T20:30:24.213Z,20.90
2023-05-25T20:32:50.979Z,22.98
2023-05-25T20:35:17.794Z,22.17
2023-05-25T20:37:44.830Z,22.00
2023-05-25T20:40:11.715Z,20.23
2023-05-25T20:42:38.382Z,21.63
2023-05-25T20:45:05.469Z,19.25
2023-05-25T20:47:32.223Z,20.73
2023-05-25T20:49:58.906Z,20.50
2023-05-25T20:52:25.919Z,22.35
2023-05-25T20:54:52.621Z,21.45
2023-05-25T20:57:19.388Z,19.90
2023-05-25T20:59:46.497Z,24.00
2023-05-25T21:02:13.511Z,21.63
2023-05-25T21:04:40.322Z,20.92
2023-05-25T21:07:07.354Z,21.70
2023-05-25T21:09:34.253Z,21.75
2023-05-25T21:12:02.157Z,22.02
2023-05-25T21:14:29.820Z,19.95
2023-05-25T21:16:56.909Z,23.77
2023-05-25T21:19:24.646Z,21.75
2023-05-25T21:21:51.870Z,20.52
2023-05-25T21:24:18.879Z,21.02
2023-05-25T21:26:45.615Z,20.40
2023-05-25T21:29:12.323Z,22.25
2023-05-25T21:31:39.211Z,22.27
2023-05-25T21:34:05.968Z,22.60
2023-05-25T21:36:32.762Z,20.95
2023-05-25T21:38:59.501Z,22.48
2023-05-25T21:41:27.295Z,22.55
2023-05-25T21:43:53.943Z,22.42
2023-05-25T21:46:20.646Z,22.85
2023-05-25T21:48:47.290Z,19.73
2023-05-25T21:51:14.094Z,21.35
2023-05-25T21:53:40.851Z,22.48
2023-05-25T21:56:10.135Z,24.70
2023-05-25T21:58:38.139Z,26.15
2023-05-25T22:01:06.306Z,23.65
2023-05-25T22:03:34.330Z,28.50
2023-05-25T22:06:01.919Z,26.55
2023-05-25T22:08:28.774Z,23.75
2023-05-25T22:10:55.943Z,25.15
2023-05-25T22:13:22.852Z,22.80
2023-05-25T22:15:49.797Z,24.73
2023-05-25T22:18:16.802Z,26.08
2023-05-25T22:20:43.566Z,23.17
2023-05-25T22:23:11.643Z,26.35
2023-05-25T22:25:38.504Z,27.10
2023-05-25T22:28:05.308Z,23.67
2023-05-25T22:30:32.286Z,23.67
2023-05-25T22:32:59.296Z,27.30
2023-05-25T22:35:26.167Z,25.30
2023-05-25T22:37:53.105Z,23.95
2023-05-25T22:40:20.108Z,26.55
2023-05-25T22:42:50.500Z,28.75
2023-05-25T22:45:18.345Z,24.75
2023-05-25T22:47:45.414Z,26.67
2023-05-25T22:50:12.654Z,26.92
2023-05-25T22:52:41.214Z,27.92
2023-05-25T22:55:09.079Z,24.88
2023-05-25T22:57:36.102Z,25.17
2023-05-25T23:00:04.703Z,29.40
2023-05-25T23:02:31.709Z,26.48
2023-05-25T23:04:58.717Z,26.08
2023-05-25T23:07:25.763Z,29.60
2023-05-25T23:09:53.162Z,24.75
2023-05-25T23:12:20.158Z,28.75
2023-05-25T23:14:47.172Z,26.65
2023-05-25T23:17:14.343Z,28.95
2023-05-25T23:19:41.417Z,30.85
2023-05-25T23:22:08.348Z,30.90
2023-05-25T23:24:35.361Z,26.42
2023-05-25T23:27:02.972Z,27.90
2023-05-25T23:29:30.117Z,29.10
2023-05-25T23:31:57.172Z,28.75
2023-05-25T23:34:24.146Z,26.92
2023-05-25T23:36:54.169Z,29.10
2023-05-25T23:39:21.836Z,30.10
2023-05-25T23:41:48.720Z,30.65
2023-05-25T23:44:15.955Z,33.67
2023-05-25T23:46:42.876Z,29.25
2023-05-25T23:49:09.714Z,30.45
2023-05-25T23:51:36.763Z,32.25
2023-05-25T23:54:03.861Z,27.73
2023-05-25T23:56:32.769Z,27.27
2023-05-25T23:58:59.865Z,27.13
